Time;durP1;ratioP1;P1;durP2;ratioP2;P2;SDS_P1;SDS_P2;PMS_P1;PMS_P2;Temp;Humidity;BMP_temperature;BMP_pressure;BME280_temperature;BME280_humidity;BME280_pressure;Samples;Min_cycle;Max_cycle;Signal;HPM_P1;HPM_P2
2022/05/21 00:02:23;;;;;;;24.45;14.88;;;;;;;;;;5014876;28;20390;-61
2022/05/21 00:04:49;;;;;;;27.65;15.00;;;;;;;;;;5032270;28;20049;-59
2022/05/21 00:07:15;;;;;;;24.67;14.00;;;;;;;;;;5032097;28;20028;-61
2022/05/21 00:09:41;;;;;;;28.23;15.57;;;;;;;;;;5032413;28;20025;-59
2022/05/21 00:12:07;;;;;;;21.58;13.85;;;;;;;;;;5032278;28;20034;-57
2022/05/21 00:14:34;;;;;;;21.20;13.18;;;;;;;;;;5013750;28;20890;-60
2022/05/21 00:17:01;;;;;;;21.23;13.05;;;;;;;;;;5032003;28;20025;-59
2022/05/21 00:19:27;;;;;;;22.17;13.45;;;;;;;;;;5032120;28;20405;-58
2022/05/21 00:21:53;;;;;;;22.48;14.35;;;;;;;;;;5032198;28;20113;-56
2022/05/21 00:24:19;;;;;;;21.95;14.20;;;;;;;;;;5032294;28;20021;-59
2022/05/21 00:26:45;;;;;;;22.88;12.77;;;;;;;;;;5032172;28;20388;-60
2022/05/21 00:29:11;;;;;;;27.55;14.07;;;;;;;;;;5014302;28;20087;-59
2022/05/21 00:31:37;;;;;;;24.15;13.80;;;;;;;;;;5032147;28;20489;-60
2022/05/21 00:34:03;;;;;;;21.60;13.88;;;;;;;;;;5031929;28;20091;-59
2022/05/21 00:36:29;;;;;;;22.23;13.52;;;;;;;;;;5032103;28;20029;-56
2022/05/21 00:38:56;;;;;;;24.02;13.68;;;;;;;;;;5031773;28;20077;-60
2022/05/21 00:41:22;;;;;;;22.42;13.95;;;;;;;;;;5031990;28;20021;-59
2022/05/21 00:43:48;;;;;;;22.38;14.25;;;;;;;;;;5015159;28;20129;-57
2022/05/21 00:46:29;;;;;;;25.65;14.48;;;;;;;;;;5031900;28;20024;-62
2022/05/21 00:49:04;;;;;;;24.17;13.32;;;;;;;;;;5014178;28;20367;-62
2022/05/21 00:51:33;;;;;;;20.50;12.82;;;;;;;;;;5031984;28;20017;-60
2022/05/21 00:54:00;;;;;;;21.83;13.07;;;;;;;;;;5031562;28;20037;-57
2022/05/21 00:56:28;;;;;;;20.73;13.43;;;;;;;;;;5031898;28;20092;-60
2022/05/21 01:01:43;;;;;;;24.50;14.52;;;;;;;;;;5032076;28;20032;-59
2022/05/21 01:04:09;;;;;;;25.20;15.57;;;;;;;;;;5031609;28;20601;-59
2022/05/21 01:06:35;;;;;;;22.80;13.60;;;;;;;;;;5014027;28;20029;-56
2022/05/21 01:09:01;;;;;;;22.00;13.02;;;;;;;;;;5034914;28;20087;-57
2022/05/21 01:11:28;;;;;;;22.13;14.52;;;;;;;;;;5017833;28;20116;-58
2022/05/21 01:13:54;;;;;;;22.75;13.65;;;;;;;;;;5035673;28;20025;-62
2022/05/21 01:16:20;;;;;;;23.23;14.77;;;;;;;;;;5035749;28;20021;-58
2022/05/21 01:18:46;;;;;;;24.77;13.45;;;;;;;;;;5035468;28;20034;-59
2022/05/21 01:21:13;;;;;;;23.35;14.95;;;;;;;;;;5035598;28;20484;-56
2022/05/21 01:23:39;;;;;;;25.20;14.38;;;;;;;;;;5035546;28;20457;-58
2022/05/21 01:26:07;;;;;;;25.10;14.77;;;;;;;;;;5035692;28;20105;-58
2022/05/21 01:28:33;;;;;;;21.60;13.93;;;;;;;;;;5035300;28;20420;-60
2022/05/21 01:31:00;;;;;;;24.65;14.88;;;;;;;;;;5035328;28;20318;-57
2022/05/21 01:33:34;;;;;;;26.73;17.40;;;;;;;;;;5017300;28;20080;-61
2022/05/21 01:36:00;;;;;;;24.75;17.13;;;;;;;;;;5017575;28;20031;-61
2022/05/21 01:38:28;;;;;;;24.20;16.58;;;;;;;;;;5017316;28;20079;-60
2022/05/21 01:40:54;;;;;;;25.95;16.20;;;;;;;;;;5035267;28;20389;-59
2022/05/21 01:46:05;;;;;;;24.80;16.98;;;;;;;;;;5035285;28;20041;-62
2022/05/21 01:48:33;;;;;;;26.00;15.70;;;;;;;;;;5017123;28;20027;-62
2022/05/21 01:50:59;;;;;;;26.05;17.50;;;;;;;;;;5035192;28;20048;-60
2022/05/21 01:53:26;;;;;;;25.20;16.52;;;;;;;;;;5017209;28;20072;-61
2022/05/21 01:55:53;;;;;;;26.23;15.40;;;;;;;;;;5017284;28;20040;-59
2022/05/21 01:58:19;;;;;;;25.58;15.80;;;;;;;;;;5016924;28;20489;-60
2022/05/21 02:00:45;;;;;;;28.75;18.38;;;;;;;;;;5016838;28;20120;-61
2022/05/21 02:03:12;;;;;;;30.58;16.08;;;;;;;;;;5017023;28;20022;-60
2022/05/21 02:05:39;;;;;;;26.58;15.95;;;;;;;;;;5034818;28;20063;-60
2022/05/21 02:08:05;;;;;;;25.33;16.17;;;;;;;;;;5016800;28;20021;-61
2022/05/21 02:10:31;;;;;;;24.48;14.63;;;;;;;;;;5034583;28;20037;-60
2022/05/21 02:12:57;;;;;;;26.08;15.40;;;;;;;;;;5016732;28;20030;-59
2022/05/21 02:15:23;;;;;;;25.75;14.85;;;;;;;;;;5016722;28;20032;-61
2022/05/21 02:17:49;;;;;;;26.73;16.20;;;;;;;;;;5034349;28;20025;-60
2022/05/21 02:20:15;;;;;;;27.33;16.55;;;;;;;;;;5033215;28;20377;-61
2022/05/21 02:22:41;;;;;;;24.70;15.25;;;;;;;;;;5034298;28;20032;-61
2022/05/21 02:25:08;;;;;;;26.27;15.63;;;;;;;;;;5034340;28;20014;-60
2022/05/21 02:27:34;;;;;;;26.35;15.43;;;;;;;;;;5033920;28;20462;-62
2022/05/21 02:30:00;;;;;;;25.88;15.98;;;;;;;;;;5034460;28;20029;-60
2022/05/21 02:32:26;;;;;;;27.10;16.30;;;;;;;;;;5034454;28;20115;-59
2022/05/21 02:34:52;;;;;;;25.90;15.32;;;;;;;;;;5034232;28;20021;-60
2022/05/21 02:40:03;;;;;;;26.08;15.02;;;;;;;;;;5034227;28;20570;-61
2022/05/21 02:42:48;;;;;;;25.08;14.73;;;;;;;;;;5034425;28;20025;-60
2022/05/21 02:45:17;;;;;;;24.80;14.77;;;;;;;;;;5015619;28;20489;-59
2022/05/21 02:47:43;;;;;;;25.95;14.95;;;;;;;;;;5015612;28;20044;-61
2022/05/21 02:50:10;;;;;;;26.13;15.30;;;;;;;;;;5033706;28;20508;-61
2022/05/21 02:52:36;;;;;;;27.33;15.15;;;;;;;;;;5015914;28;20485;-60
2022/05/21 02:55:03;;;;;;;24.92;13.57;;;;;;;;;;5016181;28;20444;-61
2022/05/21 02:57:29;;;;;;;25.65;14.80;;;;;;;;;;5033632;28;20029;-62
2022/05/21 02:59:55;;;;;;;25.35;13.13;;;;;;;;;;5033559;28;20033;-61
2022/05/21 03:02:21;;;;;;;22.58;14.10;;;;;;;;;;5033698;28;20018;-59
2022/05/21 03:04:47;;;;;;;24.90;14.05;;;;;;;;;;5015852;28;20030;-61
2022/05/21 03:07:13;;;;;;;23.02;14.32;;;;;;;;;;5015458;28;20025;-61
2022/05/21 03:12:24;;;;;;;23.17;13.88;;;;;;;;;;5033719;28;20052;-61
2022/05/21 03:14:50;;;;;;;25.80;15.38;;;;;;;;;;5033347;28;20029;-62
2022/05/21 03:17:16;;;;;;;25.27;14.10;;;;;;;;;;5033115;28;20033;-57
2022/05/21 03:19:42;;;;;;;26.25;15.52;;;;;;;;;;5032985;28;20501;-59
2022/05/21 03:22:08;;;;;;;23.83;13.63;;;;;;;;;;5033227;28;20021;-59
2022/05/21 03:24:34;;;;;;;27.05;14.90;;;;;;;;;;5015307;28;20021;-57
2022/05/21 03:27:00;;;;;;;23.98;14.60;;;;;;;;;;5033085;28;20036;-60
2022/05/21 03:29:26;;;;;;;23.15;13.82;;;;;;;;;;5032808;28;20597;-61
2022/05/21 03:31:52;;;;;;;28.75;15.90;;;;;;;;;;5033049;28;20029;-59
2022/05/21 03:34:19;;;;;;;24.63;14.88;;;;;;;;;;5032799;28;20087;-61
2022/05/21 03:36:45;;;;;;;25.80;15.68;;;;;;;;;;5014998;28;20124;-60
2022/05/21 03:39:11;;;;;;;24.67;14.02;;;;;;;;;;5032779;28;20025;-61
2022/05/21 03:41:37;;;;;;;26.10;14.82;;;;;;;;;;5032872;28;20394;-61
2022/05/21 03:44:03;;;;;;;28.05;16.38;;;;;;;;;;5032563;28;20049;-60
2022/05/21 03:46:30;;;;;;;28.00;14.65;;;;;;;;;;5032242;28;20025;-60
2022/05/21 03:48:56;;;;;;;27.33;15.35;;;;;;;;;;5032230;28;20017;-61
2022/05/21 03:51:21;;;;;;;26.13;15.43;;;;;;;;;;5032442;28;20531;-63
2022/05/21 03:53:47;;;;;;;24.48;15.68;;;;;;;;;;5014732;28;20037;-62
2022/05/21 03:56:14;;;;;;;31.08;16.15;;;;;;;;;;5032428;28;20052;-62
2022/05/21 03:58:40;;;;;;;29.73;17.15;;;;;;;;;;5014566;28;20043;-59
2022/05/21 04:01:06;;;;;;;28.00;16.48;;;;;;;;;;5032401;28;20031;-61
2022/05/21 04:03:34;;;;;;;24.00;14.80;;;;;;;;;;5032271;28;20389;-61
2022/05/21 04:06:00;;;;;;;24.98;15.32;;;;;;;;;;5014746;28;20025;-60
2022/05/21 04:08:26;;;;;;;23.65;16.08;;;;;;;;;;5032176;28;20065;-57
2022/05/21 04:10:52;;;;;;;27.90;16.48;;;;;;;;;;5032316;28;20100;-63
2022/05/21 04:13:18;;;;;;;23.85;14.25;;;;;;;;;;5014523;28;20068;-61
2022/05/21 04:15:45;;;;;;;25.70;15.52;;;;;;;;;;5032230;28;20024;-61
2022/05/21 04:18:11;;;;;;;25.30;15.38;;;;;;;;;;5031582;28;20129;-61
2022/05/21 04:20:37;;;;;;;28.55;16.05;;;;;;;;;;5032119;28;20057;-58
2022/05/21 04:23:03;;;;;;;26.17;15.75;;;;;;;;;;5032278;28;20029;-59
2022/05/21 04:25:30;;;;;;;26.92;15.77;;;;;;;;;;5032219;28;20022;-60
2022/05/21 04:27:56;;;;;;;28.75;16.23;;;;;;;;;;5014159;28;20393;-61
2022/05/21 04:30:25;;;;;;;24.58;13.43;;;;;;;;;;5031997;28;20026;-62
2022/05/21 04:32:51;;;;;;;27.77;15.38;;;;;;;;;;5031765;28;20026;-62
2022/05/21 04:35:17;;;;;;;32.13;14.45;;;;;;;;;;5032041;28;20033;-60
2022/05/21 04:37:43;;;;;;;23.25;14.43;;;;;;;;;;5014056;28;20029;-61
2022/05/21 04:40:13;;;;;;;25.20;15.05;;;;;;;;;;5031958;28;20025;-63
2022/05/21 04:42:39;;;;;;;25.60;15.68;;;;;;;;;;5013829;28;20509;-61
2022/05/21 04:45:06;;;;;;;25.60;15.18;;;;;;;;;;5031752;28;20088;-61
2022/05/21 04:47:32;;;;;;;25.73;15.30;;;;;;;;;;5031485;28;20021;-62
2022/05/21 04:49:58;;;;;;;27.45;15.07;;;;;;;;;;5031935;28;20539;-58
2022/05/21 04:52:24;;;;;;;26.58;15.10;;;;;;;;;;5014362;28;20030;-62
2022/05/21 04:54:50;;;;;;;24.63;14.48;;;;;;;;;;5014090;28;20403;-62
2022/05/21 04:57:16;;;;;;;24.30;14.32;;;;;;;;;;5031580;28;20049;-62
2022/05/21 04:59:42;;;;;;;24.80;14.50;;;;;;;;;;5031518;28;20105;-60
2022/05/21 05:02:08;;;;;;;27.27;15.43;;;;;;;;;;5031676;28;20389;-62
2022/05/21 05:04:34;;;;;;;25.85;15.45;;;;;;;;;;5031844;28;20017;-60
2022/05/21 05:07:06;;;;;;;29.83;14.43;;;;;;;;;;5031719;28;20030;-59
2022/05/21 05:09:32;;;;;;;25.92;15.63;;;;;;;;;;5031600;28;20087;-60
2022/05/21 05:11:58;;;;;;;25.65;15.05;;;;;;;;;;5031910;28;20030;-63
2022/05/21 05:14:24;;;;;;;22.67;13.63;;;;;;;;;;5013834;28;20547;-60
2022/05/21 05:16:50;;;;;;;24.58;14.30;;;;;;;;;;5013930;28;20037;-59
2022/05/21 05:19:16;;;;;;;25.88;13.48;;;;;;;;;;5031347;28;20501;-61
2022/05/21 05:21:42;;;;;;;25.98;14.88;;;;;;;;;;5013892;28;20022;-62
2022/05/21 05:24:08;;;;;;;25.77;14.30;;;;;;;;;;5013834;28;20017;-59
2022/05/21 05:26:34;;;;;;;25.13;14.90;;;;;;;;;;5031532;28;20508;-60
2022/05/21 05:29:00;;;;;;;28.70;14.88;;;;;;;;;;5013482;28;20065;-62
2022/05/21 05:31:26;;;;;;;25.00;15.18;;;;;;;;;;5031841;28;20031;-60
2022/05/21 05:33:52;;;;;;;27.85;14.43;;;;;;;;;;5031463;28;20489;-60
2022/05/21 05:36:18;;;;;;;28.75;15.43;;;;;;;;;;5031422;28;20021;-62
2022/05/21 05:38:44;;;;;;;25.92;13.95;;;;;;;;;;5013469;28;20072;-61
2022/05/21 05:41:10;;;;;;;27.15;13.52;;;;;;;;;;5031275;28;20096;-60
2022/05/21 05:43:36;;;;;;;25.42;14.60;;;;;;;;;;5030978;28;20244;-62
2022/05/21 05:46:02;;;;;;;23.45;14.43;;;;;;;;;;5031540;28;20117;-60
2022/05/21 05:48:29;;;;;;;27.23;13.70;;;;;;;;;;5031059;28;20032;-61
2022/05/21 05:50:56;;;;;;;25.13;13.60;;;;;;;;;;5031358;28;20440;-58
2022/05/21 05:53:22;;;;;;;27.85;12.90;;;;;;;;;;5013573;28;20516;-60
2022/05/21 05:55:48;;;;;;;26.17;13.88;;;;;;;;;;5033093;28;20437;-61
2022/05/21 06:00:59;;;;;;;26.85;14.15;;;;;;;;;;5034654;28;20512;-62
2022/05/21 06:03:26;;;;;;;26.27;12.82;;;;;;;;;;5034516;28;20026;-60
2022/05/21 06:05:53;;;;;;;22.65;12.45;;;;;;;;;;5034668;28;20071;-58
2022/05/21 06:08:19;;;;;;;24.42;13.52;;;;;;;;;;5034534;28;20026;-60
2022/05/21 06:10:48;;;;;;;24.20;11.80;;;;;;;;;;5034512;28;20057;-58
2022/05/21 06:13:14;;;;;;;;;;;;;;;;;;5034702;28;20022;-61
2022/05/21 06:15:41;;;;;;;30.63;13.70;;;;;;;;;;5034742;28;19951;-58
2022/05/21 06:18:11;;;;;;;23.77;13.45;;;;;;;;;;5034266;28;20025;-61
2022/05/21 06:20:37;;;;;;;23.02;13.00;;;;;;;;;;5034448;28;20029;-60
2022/05/21 06:23:03;;;;;;;25.15;14.07;;;;;;;;;;5034287;28;20079;-61
2022/05/21 06:25:33;;;;;;;24.58;13.52;;;;;;;;;;5033988;28;20439;-58
2022/05/21 06:27:59;;;;;;;23.58;14.15;;;;;;;;;;5033779;28;20022;-62
2022/05/21 06:30:26;;;;;;;24.08;13.38;;;;;;;;;;5016249;28;20386;-63
2022/05/21 06:32:52;;;;;;;23.42;13.60;;;;;;;;;;5033921;28;20496;-61
2022/05/21 06:35:19;;;;;;;27.65;14.10;;;;;;;;;;5034167;28;20064;-58
2022/05/21 06:37:45;;;;;;;24.33;13.85;;;;;;;;;;5033806;28;20025;-58
2022/05/21 06:40:12;;;;;;;24.35;13.68;;;;;;;;;;5034372;28;20037;-61
2022/05/21 06:42:38;;;;;;;24.80;13.98;;;;;;;;;;5033976;28;20105;-61
2022/05/21 06:45:04;;;;;;;26.92;14.10;;;;;;;;;;5001518;23;20482;-63
2022/05/21 06:47:30;;;;;;;23.48;13.63;;;;;;;;;;4950614;29;20039;-63
2022/05/21 06:49:57;;;;;;;22.50;13.02;;;;;;;;;;4934146;29;20032;-63
2022/05/21 06:52:26;;;;;;;22.20;14.05;;;;;;;;;;4951513;29;20050;-63
2022/05/21 06:54:53;;;;;;;25.50;13.93;;;;;;;;;;4973570;28;20031;-63
2022/05/21 06:57:19;;;;;;;24.17;14.45;;;;;;;;;;4951014;29;20418;-61
2022/05/21 06:59:45;;;;;;;28.70;14.38;;;;;;;;;;4951279;29;20031;-63
2022/05/21 07:02:11;;;;;;;22.15;12.98;;;;;;;;;;4950919;29;20029;-62
2022/05/21 07:07:43;;;;;;;26.63;13.70;;;;;;;;;;4950510;29;20077;-63
2022/05/21 07:10:10;;;;;;;25.42;13.82;;;;;;;;;;4951023;29;20104;-64
2022/05/21 07:12:37;;;;;;;26.55;13.88;;;;;;;;;;4951013;29;20480;-62
2022/05/21 07:15:04;;;;;;;25.05;12.65;;;;;;;;;;4950772;29;20113;-62
2022/05/21 07:17:30;;;;;;;24.30;13.68;;;;;;;;;;5017060;28;20380;-62
2022/05/21 07:19:56;;;;;;;20.88;12.20;;;;;;;;;;4951132;29;20138;-64
2022/05/21 07:22:22;;;;;;;28.63;13.45;;;;;;;;;;4950951;29;20019;-63
2022/05/21 07:24:48;;;;;;;21.48;13.23;;;;;;;;;;4950893;29;20031;-63
2022/05/21 07:27:15;;;;;;;24.10;12.32;;;;;;;;;;4950815;29;20032;-61
2022/05/21 07:29:42;;;;;;;18.98;11.07;;;;;;;;;;4950880;29;20487;-62
2022/05/21 07:32:16;;;;;;;26.80;14.00;;;;;;;;;;4950941;28;20027;-61
2022/05/21 07:34:42;;;;;;;22.73;12.35;;;;;;;;;;4950683;29;20088;-63
2022/05/21 07:37:08;;;;;;;26.80;13.13;;;;;;;;;;4950451;28;20051;-57
2022/05/21 07:39:34;;;;;;;22.55;11.80;;;;;;;;;;4950364;29;20038;-62
2022/05/21 07:42:00;;;;;;;27.20;12.95;;;;;;;;;;4950601;29;20506;-61
2022/05/21 07:44:26;;;;;;;24.65;12.63;;;;;;;;;;4950336;28;20089;-61
2022/05/21 07:46:52;;;;;;;23.73;11.60;;;;;;;;;;4950657;28;20057;-61
2022/05/21 07:49:18;;;;;;;25.38;13.00;;;;;;;;;;5016678;28;20050;-64
2022/05/21 07:51:44;;;;;;;21.38;12.55;;;;;;;;;;4950287;29;20031;-62
2022/05/21 07:54:10;;;;;;;26.42;13.38;;;;;;;;;;4950551;28;20027;-61
2022/05/21 07:56:36;;;;;;;22.95;12.73;;;;;;;;;;4948905;29;20403;-61
2022/05/21 07:59:02;;;;;;;26.02;11.88;;;;;;;;;;4942773;28;20068;-59
2022/05/21 08:01:28;;;;;;;26.48;13.13;;;;;;;;;;4939607;28;20030;-61
2022/05/21 08:03:54;;;;;;;20.80;12.07;;;;;;;;;;5004700;28;20020;-60
2022/05/21 08:06:20;;;;;;;22.92;12.98;;;;;;;;;;4940900;28;20016;-60
2022/05/21 08:08:48;;;;;;;23.58;13.70;;;;;;;;;;4938302;29;20392;-60
2022/05/21 08:11:14;;;;;;;25.30;12.40;;;;;;;;;;4941050;29;20091;-60
2022/05/21 08:13:40;;;;;;;28.58;14.00;;;;;;;;;;4939479;28;20039;-58
2022/05/21 08:16:06;;;;;;;22.83;12.73;;;;;;;;;;4939923;28;20067;-57
2022/05/21 08:18:32;;;;;;;25.08;13.00;;;;;;;;;;4940001;29;20082;-57
2022/05/21 08:20:58;;;;;;;24.33;12.65;;;;;;;;;;4941308;28;20035;-58
2022/05/21 08:28:53;;;;;;;21.05;10.95;;;;;;;;;;4947084;29;20079;-59
2022/05/21 08:31:19;;;;;;;20.05;11.50;;;;;;;;;;4940193;28;20050;-57
2022/05/21 08:33:45;;;;;;;21.38;11.95;;;;;;;;;;4930667;29;20027;-60
2022/05/21 08:36:11;;;;;;;25.38;12.23;;;;;;;;;;4996122;28;20122;-62
2022/05/21 08:38:37;;;;;;;24.27;12.63;;;;;;;;;;4998044;28;20031;-58
2022/05/21 08:41:03;;;;;;;21.02;11.15;;;;;;;;;;4939432;29;20031;-60
2022/05/21 08:43:35;;;;;;;26.70;11.35;;;;;;;;;;5004434;28;20514;-59
2022/05/21 08:46:09;;;;;;;22.40;11.77;;;;;;;;;;4939335;28;20027;-61
2022/05/21 08:48:36;;;;;;;24.48;12.30;;;;;;;;;;4938393;29;20499;-61
2022/05/21 08:51:05;;;;;;;22.77;12.00;;;;;;;;;;5005764;28;20081;-62
2022/05/21 08:53:37;;;;;;;20.02;11.02;;;;;;;;;;4589732;28;10000574;-60
2022/05/21 08:56:05;;;;;;;21.80;12.48;;;;;;;;;;4937754;28;20399;-61
2022/05/21 08:58:31;;;;;;;;;;;;;;;;;;5000828;28;20027;-61
2022/05/21 09:00:57;;;;;;;21.55;10.70;;;;;;;;;;4935931;29;19911;-60
2022/05/21 09:03:25;;;;;;;20.98;11.93;;;;;;;;;;4935853;29;20028;-61
2022/05/21 09:06:06;;;;;;;21.92;11.65;;;;;;;;;;4937038;28;20112;-60
2022/05/21 09:08:47;;;;;;;25.38;12.38;;;;;;;;;;4936899;29;20026;-61
2022/05/21 09:11:36;;;;;;;22.88;11.88;;;;;;;;;;4937222;28;20524;-59
2022/05/21 09:14:15;;;;;;;21.05;10.88;;;;;;;;;;4937524;28;20126;-61
2022/05/21 09:16:54;;;;;;;21.38;10.30;;;;;;;;;;4944317;29;20133;-60
2022/05/21 09:19:21;;;;;;;20.92;11.00;;;;;;;;;;4995253;28;20041;-60
2022/05/21 09:21:55;;;;;;;20.33;10.60;;;;;;;;;;4946311;29;20032;-59
2022/05/21 09:24:34;;;;;;;26.02;12.75;;;;;;;;;;5012788;28;20031;-59
2022/05/21 09:27:00;;;;;;;21.05;10.43;;;;;;;;;;4933554;29;20093;-58
2022/05/21 09:29:28;;;;;;;25.58;11.55;;;;;;;;;;4929899;29;20024;-61
2022/05/21 09:31:54;;;;;;;17.58;10.10;;;;;;;;;;4940582;28;20124;-61
2022/05/21 09:34:29;;;;;;;19.42;10.68;;;;;;;;;;4933077;28;20492;-62
2022/05/21 09:36:56;;;;;;;20.00;11.32;;;;;;;;;;4933444;28;20107;-64
2022/05/21 09:39:32;;;;;;;22.88;11.07;;;;;;;;;;4936096;28;20466;-65
2022/05/21 09:42:07;;;;;;;21.67;11.23;;;;;;;;;;4937684;29;20036;-65
2022/05/21 09:47:23;;;;;;;22.77;10.68;;;;;;;;;;4944626;28;20097;-64
2022/05/21 09:50:00;;;;;;;21.83;11.25;;;;;;;;;;4935547;28;20028;-62
2022/05/21 09:52:29;;;;;;;23.35;11.93;;;;;;;;;;4935308;28;20039;-66
2022/05/21 09:54:55;;;;;;;20.23;11.38;;;;;;;;;;4946601;28;20031;-64
2022/05/21 09:57:43;;;;;;;21.92;11.70;;;;;;;;;;4933575;28;20028;-64
2022/05/21 10:00:21;;;;;;;23.25;10.95;;;;;;;;;;4999063;28;20035;-63
2022/05/21 10:02:49;;;;;;;21.08;10.70;;;;;;;;;;4933580;28;20387;-63
2022/05/21 10:05:23;;;;;;;20.42;11.43;;;;;;;;;;4933755;28;20158;-62
2022/05/21 10:13:23;;;;;;;22.97;11.03;;;;;;;;;;4946148;29;20041;-63
2022/05/21 10:15:54;;;;;;;23.55;11.88;;;;;;;;;;5018571;28;20753;-63
2022/05/21 10:18:38;;;;;;;23.67;12.85;;;;;;;;;;4952415;28;20039;-65
2022/05/21 10:21:08;;;;;;;23.75;10.75;;;;;;;;;;5019071;28;20038;-63
2022/05/21 10:23:34;;;;;;;22.67;10.52;;;;;;;;;;5019190;28;20031;-61
2022/05/21 10:26:03;;;;;;;18.65;10.63;;;;;;;;;;4952210;28;20054;-61
2022/05/21 10:28:36;;;;;;;20.48;10.63;;;;;;;;;;4952088;29;20593;-64
2022/05/21 10:31:10;;;;;;;26.77;12.02;;;;;;;;;;5018620;28;20399;-63
2022/05/21 10:33:36;;;;;;;24.17;12.18;;;;;;;;;;4948296;29;20019;-62
2022/05/21 10:36:21;;;;;;;21.55;11.55;;;;;;;;;;4941914;28;20460;-64
2022/05/21 10:39:02;;;;;;;20.80;10.48;;;;;;;;;;4942369;28;20395;-64
2022/05/21 10:41:31;;;;;;;18.55;10.07;;;;;;;;;;5007938;28;20026;-64
2022/05/21 10:44:16;;;;;;;19.90;10.60;;;;;;;;;;4940883;29;20032;-63
2022/05/21 10:46:47;;;;;;;21.15;11.45;;;;;;;;;;4942109;29;20108;-65
2022/05/21 10:49:34;;;;;;;22.65;12.27;;;;;;;;;;4940499;29;20023;-64
2022/05/21 10:52:05;;;;;;;24.97;10.97;;;;;;;;;;4941684;29;20111;-64
2022/05/21 10:54:49;;;;;;;19.45;10.52;;;;;;;;;;4940427;28;20359;-65
2022/05/21 10:57:34;;;;;;;22.40;12.05;;;;;;;;;;5008060;28;20562;-63
2022/05/21 11:00:26;;;;;;;21.48;11.80;;;;;;;;;;4940299;29;20380;-60
2022/05/21 11:03:05;;;;;;;21.25;11.70;;;;;;;;;;5008344;28;20055;-63
2022/05/21 11:05:49;;;;;;;27.98;11.48;;;;;;;;;;5007535;28;20047;-63
2022/05/21 11:08:15;;;;;;;21.50;11.73;;;;;;;;;;4938797;29;20016;-63
2022/05/21 11:10:49;;;;;;;20.52;10.88;;;;;;;;;;4940806;28;20364;-64
2022/05/21 11:13:15;;;;;;;21.55;11.32;;;;;;;;;;4940006;28;20158;-65
2022/05/21 11:15:41;;;;;;;21.60;11.30;;;;;;;;;;4941587;28;20027;-63
2022/05/21 11:18:20;;;;;;;22.25;11.52;;;;;;;;;;5001690;28;20372;-64
2022/05/21 11:20:48;;;;;;;19.10;10.52;;;;;;;;;;4940079;29;20019;-65
2022/05/21 11:23:22;;;;;;;20.15;11.02;;;;;;;;;;4942575;28;20027;-61
2022/05/21 11:25:55;;;;;;;19.90;10.48;;;;;;;;;;4940743;28;20101;-63
2022/05/21 11:28:38;;;;;;;21.27;11.27;;;;;;;;;;4940448;29;20027;-62
2022/05/21 11:31:06;;;;;;;21.30;11.05;;;;;;;;;;4617344;28;10000409;-64
2022/05/21 11:37:20;;;;;;;20.80;10.57;;;;;;;;;;4958737;28;20033;-64
2022/05/21 11:39:14;;;;;;;18.75;10.98;;;;;;;;;;4941774;28;20085;-62
2022/05/21 11:41:55;;;;;;;20.83;11.43;;;;;;;;;;4928704;29;20028;-64
2022/05/21 11:47:06;;;;;;;20.27;10.73;;;;;;;;;;4937287;29;20078;-62
2022/05/21 11:49:51;;;;;;;21.65;11.55;;;;;;;;;;4938692;28;20027;-65
2022/05/21 11:52:28;;;;;;;24.50;12.60;;;;;;;;;;5005692;28;20028;-62
2022/05/21 11:54:54;;;;;;;21.67;11.68;;;;;;;;;;4936544;28;20031;-61
2022/05/21 11:57:32;;;;;;;18.65;10.13;;;;;;;;;;4939472;28;20027;-63
2022/05/21 11:59:58;;;;;;;19.77;10.50;;;;;;;;;;5005878;28;20055;-64
2022/05/21 12:02:25;;;;;;;22.15;11.10;;;;;;;;;;4940605;29;20043;-64
2022/05/21 12:04:56;;;;;;;20.10;10.65;;;;;;;;;;4938022;28;20185;-64
2022/05/21 12:07:40;;;;;;;24.65;11.00;;;;;;;;;;4939376;29;20047;-63
2022/05/21 12:10:12;;;;;;;18.38;10.15;;;;;;;;;;5006721;28;20024;-62
2022/05/21 12:12:58;;;;;;;22.30;10.52;;;;;;;;;;4938813;28;20019;-64
2022/05/21 12:15:35;;;;;;;21.95;11.90;;;;;;;;;;4939417;28;20024;-65
2022/05/21 12:18:06;;;;;;;20.00;10.80;;;;;;;;;;4939534;28;20066;-64
2022/05/21 12:20:45;;;;;;;20.40;10.98;;;;;;;;;;4941887;29;20444;-65
2022/05/21 12:23:13;;;;;;;21.25;11.43;;;;;;;;;;4939116;28;20444;-63
2022/05/21 12:25:42;;;;;;;23.00;11.35;;;;;;;;;;5007773;28;20022;-65
2022/05/21 12:28:09;;;;;;;19.85;10.50;;;;;;;;;;4939940;28;20094;-64
2022/05/21 12:30:35;;;;;;;20.60;11.30;;;;;;;;;;4940773;29;20027;-63
2022/05/21 12:33:01;;;;;;;21.25;12.30;;;;;;;;;;4942656;28;20457;-65
2022/05/21 12:35:33;;;;;;;21.65;12.45;;;;;;;;;;4950221;28;20027;-63
2022/05/21 12:37:59;;;;;;;23.35;12.23;;;;;;;;;;5016241;28;20069;-63
2022/05/21 12:40:39;;;;;;;19.70;10.68;;;;;;;;;;4931746;28;20071;-64
2022/05/21 12:43:09;;;;;;;22.90;11.35;;;;;;;;;;4996301;28;20032;-61
2022/05/21 12:45:42;;;;;;;24.70;10.57;;;;;;;;;;4955024;23;20078;-66
2022/05/21 12:48:11;;;;;;;18.23;10.40;;;;;;;;;;4949779;28;20321;-65
2022/05/21 12:50:45;;;;;;;20.38;10.48;;;;;;;;;;4950520;29;20506;-65
2022/05/21 12:53:11;;;;;;;23.00;10.77;;;;;;;;;;4950237;29;20027;-64
2022/05/21 12:55:37;;;;;;;18.27;10.77;;;;;;;;;;4950427;29;20027;-60
2022/05/21 12:58:09;;;;;;;22.77;10.98;;;;;;;;;;4950312;28;20027;-64
2022/05/21 13:00:36;;;;;;;20.70;11.10;;;;;;;;;;4950225;28;20032;-64
2022/05/21 13:03:06;;;;;;;19.67;11.20;;;;;;;;;;4950323;28;20050;-62
2022/05/21 13:05:34;;;;;;;18.40;10.82;;;;;;;;;;4953729;29;20106;-62
2022/05/21 13:08:01;;;;;;;19.52;10.85;;;;;;;;;;5019708;28;20032;-64
2022/05/21 13:10:34;;;;;;;19.10;10.80;;;;;;;;;;4953633;29;20070;-64
2022/05/21 13:13:04;;;;;;;18.63;10.23;;;;;;;;;;4953815;29;20068;-64
2022/05/21 13:15:30;;;;;;;17.92;10.95;;;;;;;;;;4934857;28;20031;-63
2022/05/21 13:18:11;;;;;;;20.23;10.60;;;;;;;;;;4934310;29;20510;-64
2022/05/21 13:20:40;;;;;;;18.02;10.93;;;;;;;;;;4934502;29;20024;-65
2022/05/21 13:23:12;;;;;;;22.15;11.15;;;;;;;;;;4934295;29;20024;-63
2022/05/21 13:25:39;;;;;;;21.23;11.63;;;;;;;;;;4934087;29;20094;-65
2022/05/21 13:28:15;;;;;;;23.08;11.20;;;;;;;;;;4999839;28;20488;-64
2022/05/21 13:30:46;;;;;;;22.40;10.75;;;;;;;;;;4934329;29;20024;-64
2022/05/21 13:33:15;;;;;;;21.02;11.05;;;;;;;;;;5000145;28;20118;-64
2022/05/21 13:35:42;;;;;;;22.05;11.07;;;;;;;;;;4933857;29;20353;-65
2022/05/21 13:38:12;;;;;;;20.27;10.60;;;;;;;;;;4933991;29;20031;-66
2022/05/21 13:40:54;;;;;;;19.83;10.57;;;;;;;;;;4251358;28;10000754;-65
2022/05/21 13:43:24;;;;;;;18.10;10.50;;;;;;;;;;4997255;28;20051;-65
2022/05/21 13:45:55;;;;;;;19.10;10.93;;;;;;;;;;4930951;29;20617;-66
2022/05/21 13:48:23;;;;;;;24.35;10.90;;;;;;;;;;4931241;29;20036;-64
2022/05/21 13:50:49;;;;;;;27.73;11.68;;;;;;;;;;4931030;29;20107;-65
2022/05/21 13:53:18;;;;;;;22.02;12.20;;;;;;;;;;4996398;28;20035;-65
2022/05/21 13:55:57;;;;;;;19.52;11.07;;;;;;;;;;4930910;29;20024;-66
2022/05/21 13:58:40;;;;;;;20.83;11.23;;;;;;;;;;4996272;28;20470;-65
2022/05/21 14:01:24;;;;;;;20.90;10.25;;;;;;;;;;4996013;28;20028;-64
2022/05/21 14:03:50;;;;;;;20.27;10.30;;;;;;;;;;4931070;29;20024;-67
2022/05/21 14:06:17;;;;;;;18.83;10.40;;;;;;;;;;4930804;29;20023;-66
2022/05/21 14:08:49;;;;;;;21.30;10.17;;;;;;;;;;4930748;29;20034;-67
2022/05/21 14:11:16;;;;;;;19.50;9.73;;;;;;;;;;4996671;28;20547;-66
2022/05/21 14:13:54;;;;;;;21.70;10.43;;;;;;;;;;4996304;28;20176;-67
2022/05/21 14:16:37;;;;;;;19.30;10.47;;;;;;;;;;4929693;29;20131;-66
2022/05/21 14:19:24;;;;;;;20.15;10.65;;;;;;;;;;4930490;29;20058;-66
2022/05/21 14:21:59;;;;;;;22.98;11.52;;;;;;;;;;4997439;28;20142;-67
2022/05/21 14:24:26;;;;;;;17.42;10.82;;;;;;;;;;4932160;29;20039;-66
2022/05/21 14:26:57;;;;;;;20.55;10.98;;;;;;;;;;4932991;29;20026;-65
2022/05/21 14:29:33;;;;;;;17.25;10.10;;;;;;;;;;4933286;29;20039;-65
2022/05/21 14:32:11;;;;;;;17.98;10.45;;;;;;;;;;4999420;28;20384;-64
2022/05/21 14:34:37;;;;;;;17.85;10.05;;;;;;;;;;4999172;28;20480;-66
2022/05/21 14:37:03;;;;;;;16.40;9.60;;;;;;;;;;4934080;29;20024;-66
2022/05/21 14:39:29;;;;;;;18.77;9.68;;;;;;;;;;4943613;29;20032;-66
2022/05/21 14:41:59;;;;;;;17.10;9.93;;;;;;;;;;4952619;29;20031;-67
2022/05/21 14:44:26;;;;;;;18.75;10.02;;;;;;;;;;4669103;28;9999831;-66
2022/05/21 14:49:37;;;;;;;18.55;10.23;;;;;;;;;;4950101;29;20118;-65
2022/05/21 14:52:51;;;;;;;18.83;10.05;;;;;;;;;;4949896;28;20461;-66
2022/05/21 14:54:51;;;;;;;18.73;10.30;;;;;;;;;;4945749;28;20466;-66
2022/05/21 14:57:18;;;;;;;17.20;10.30;;;;;;;;;;5016857;28;20039;-66
2022/05/21 14:59:44;;;;;;;17.77;10.48;;;;;;;;;;4952157;29;20458;-66
2022/05/21 15:02:12;;;;;;;18.02;9.90;;;;;;;;;;4952455;29;20436;-65
2022/05/21 15:04:38;;;;;;;19.17;9.98;;;;;;;;;;4952248;29;20028;-65
2022/05/21 15:07:06;;;;;;;17.23;9.50;;;;;;;;;;5018370;28;20031;-65
2022/05/21 15:09:32;;;;;;;16.90;9.85;;;;;;;;;;4952233;28;20023;-65